sensor_id;sensor_type;location;lat;lon;timestamp;P1;durP1;ratioP1;P2;durP2;ratioP2
54197;SDS011;40105;52.366;17.000;2023-05-17T00:00:55;31.27;;;12.30;;
54197;SDS011;40105;52.366;17.000;2023-05-17T00:03:20;19.70;;;9.83;;
54197;SDS011;40105;52.366;17.000;2023-05-17T00:05:45;36.42;;;11.40;;
54197;SDS011;40105;52.366;17.000;2023-05-17T00:08:11;23.33;;;10.20;;
54197;SDS011;40105;52.366;17.000;2023-05-17T00:10:36;17.55;;;10.25;;
54197;SDS011;40105;52.366;17.000;2023-05-17T00:13:01;17.37;;;9.80;;
54197;SDS011;40105;52.366;17.000;2023-05-17T00:15:27;21.70;;;9.00;;
54197;SDS011;40105;52.366;17.000;2023-05-17T00:17:52;22.63;;;9.83;;
54197;SDS011;40105;52.366;17.000;2023-05-17T00:20:17;20.73;;;10.07;;
54197;SDS011;40105;52.366;17.000;2023-05-17T00:22:43;17.73;;;9.07;;
54197;SDS011;40105;52.366;17.000;2023-05-17T00:25:09;12.85;;;8.10;;
54197;SDS011;40105;52.366;17.000;2023-05-17T00:27:35;13.97;;;7.90;;
54197;SDS011;40105;52.366;17.000;2023-05-17T00:30:00;15.52;;;7.95;;
54197;SDS011;40105;52.366;17.000;2023-05-17T00:32:25;25.13;;;8.23;;
54197;SDS011;40105;52.366;17.000;2023-05-17T00:34:50;15.77;;;7.07;;
54197;SDS011;40105;52.366;17.000;2023-05-17T00:37:15;12.50;;;6.72;;
54197;SDS011;40105;52.366;17.000;2023-05-17T00:39:41;13.93;;;5.00;;
54197;SDS011;40105;52.366;17.000;2023-05-17T00:42:06;11.03;;;5.90;;
54197;SDS011;40105;52.366;17.000;2023-05-17T00:44:31;18.90;;;6.00;;
54197;SDS011;40105;52.366;17.000;2023-05-17T00:46:56;19.50;;;6.50;;
54197;SDS011;40105;52.366;17.000;2023-05-17T00:49:23;14.98;;;5.40;;
54197;SDS011;40105;52.366;17.000;2023-05-17T00:51:49;10.40;;;4.82;;
54197;SDS011;40105;52.366;17.000;2023-05-17T00:54:14;11.63;;;5.63;;
54197;SDS011;40105;52.366;17.000;2023-05-17T00:56:39;16.45;;;5.43;;
54197;SDS011;40105;52.366;17.000;2023-05-17T00:59:05;11.95;;;4.18;;
54197;SDS011;40105;52.366;17.000;2023-05-17T01:01:30;18.10;;;4.38;;
54197;SDS011;40105;52.366;17.000;2023-05-17T01:03:56;9.35;;;4.38;;
54197;SDS011;40105;52.366;17.000;2023-05-17T01:06:21;14.90;;;4.23;;
54197;SDS011;40105;52.366;17.000;2023-05-17T01:08:46;13.70;;;3.93;;
54197;SDS011;40105;52.366;17.000;2023-05-17T01:11:13;13.33;;;3.50;;
54197;SDS011;40105;52.366;17.000;2023-05-17T01:13:54;7.25;;;3.03;;
54197;SDS011;40105;52.366;17.000;2023-05-17T01:16:29;16.35;;;4.20;;
54197;SDS011;40105;52.366;17.000;2023-05-17T01:26:38;9.02;;;2.53;;
54197;SDS011;40105;52.366;17.000;2023-05-17T01:29:03;15.90;;;2.80;;
54197;SDS011;40105;52.366;17.000;2023-05-17T01:31:29;6.75;;;2.70;;
54197;SDS011;40105;52.366;17.000;2023-05-17T01:33:55;6.40;;;2.17;;
54197;SDS011;40105;52.366;17.000;2023-05-17T01:36:22;10.20;;;2.30;;
54197;SDS011;40105;52.366;17.000;2023-05-17T01:38:47;6.07;;;2.05;;
54197;SDS011;40105;52.366;17.000;2023-05-17T01:41:14;4.95;;;2.38;;
54197;SDS011;40105;52.366;17.000;2023-05-17T01:43:41;7.75;;;2.45;;
54197;SDS011;40105;52.366;17.000;2023-05-17T01:46:27;13.43;;;1.98;;
54197;SDS011;40105;52.366;17.000;2023-05-17T01:49:40;5.70;;;1.90;;
54197;SDS011;40105;52.366;17.000;2023-05-17T01:51:48;12.32;;;2.13;;
54197;SDS011;40105;52.366;17.000;2023-05-17T01:54:17;3.00;;;1.40;;
54197;SDS011;40105;52.366;17.000;2023-05-17T01:56:46;5.50;;;1.85;;
54197;SDS011;40105;52.366;17.000;2023-05-17T01:59:14;8.85;;;1.88;;
54197;SDS011;40105;52.366;17.000;2023-05-17T02:01:39;4.88;;;1.80;;
54197;SDS011;40105;52.366;17.000;2023-05-17T02:04:05;9.77;;;2.30;;
54197;SDS011;40105;52.366;17.000;2023-05-17T02:06:30;4.73;;;1.73;;
54197;SDS011;40105;52.366;17.000;2023-05-17T02:08:56;6.77;;;1.63;;
54197;SDS011;40105;52.366;17.000;2023-05-17T02:11:22;7.65;;;2.05;;
54197;SDS011;40105;52.366;17.000;2023-05-17T02:13:47;3.77;;;1.60;;
54197;SDS011;40105;52.366;17.000;2023-05-17T02:16:13;6.93;;;2.25;;
54197;SDS011;40105;52.366;17.000;2023-05-17T02:18:38;10.33;;;2.90;;
54197;SDS011;40105;52.366;17.000;2023-05-17T02:21:04;3.83;;;1.95;;
54197;SDS011;40105;52.366;17.000;2023-05-17T02:23:29;5.30;;;2.03;;
54197;SDS011;40105;52.366;17.000;2023-05-17T02:25:54;7.93;;;2.17;;
54197;SDS011;40105;52.366;17.000;2023-05-17T02:28:19;6.20;;;1.70;;
54197;SDS011;40105;52.366;17.000;2023-05-17T02:30:45;7.83;;;2.50;;
54197;SDS011;40105;52.366;17.000;2023-05-17T02:33:10;4.67;;;1.60;;
54197;SDS011;40105;52.366;17.000;2023-05-17T02:35:35;5.70;;;2.17;;
54197;SDS011;40105;52.366;17.000;2023-05-17T02:38:00;10.63;;;2.10;;
54197;SDS011;40105;52.366;17.000;2023-05-17T02:40:25;4.40;;;1.70;;
54197;SDS011;40105;52.366;17.000;2023-05-17T02:42:51;10.50;;;1.70;;
54197;SDS011;40105;52.366;17.000;2023-05-17T02:45:16;6.37;;;1.83;;
54197;SDS011;40105;52.366;17.000;2023-05-17T02:47:41;8.80;;;1.37;;
54197;SDS011;40105;52.366;17.000;2023-05-17T02:50:06;3.37;;;1.60;;
54197;SDS011;40105;52.366;17.000;2023-05-17T02:52:31;9.90;;;2.05;;
54197;SDS011;40105;52.366;17.000;2023-05-17T02:54:57;9.05;;;2.67;;
54197;SDS011;40105;52.366;17.000;2023-05-17T02:57:22;4.30;;;1.45;;
54197;SDS011;40105;52.366;17.000;2023-05-17T02:59:47;5.37;;;1.67;;
54197;SDS011;40105;52.366;17.000;2023-05-17T03:02:12;6.33;;;1.97;;
54197;SDS011;40105;52.366;17.000;2023-05-17T03:04:37;12.73;;;3.27;;
54197;SDS011;40105;52.366;17.000;2023-05-17T03:07:03;6.73;;;2.07;;
54197;SDS011;40105;52.366;17.000;2023-05-17T03:09:28;10.25;;;2.40;;
54197;SDS011;40105;52.366;17.000;2023-05-17T03:11:54;4.10;;;1.30;;
54197;SDS011;40105;52.366;17.000;2023-05-17T03:14:19;14.40;;;2.13;;
54197;SDS011;40105;52.366;17.000;2023-05-17T03:16:44;14.13;;;2.00;;
54197;SDS011;40105;52.366;17.000;2023-05-17T03:19:10;8.03;;;1.77;;
54197;SDS011;40105;52.366;17.000;2023-05-17T03:21:35;16.43;;;2.27;;
54197;SDS011;40105;52.366;17.000;2023-05-17T03:24:00;9.40;;;2.30;;
54197;SDS011;40105;52.366;17.000;2023-05-17T03:26:25;13.53;;;2.13;;
54197;SDS011;40105;52.366;17.000;2023-05-17T03:28:51;7.50;;;2.13;;
54197;SDS011;40105;52.366;17.000;2023-05-17T03:31:16;12.77;;;2.77;;
54197;SDS011;40105;52.366;17.000;2023-05-17T03:33:42;7.18;;;2.15;;
54197;SDS011;40105;52.366;17.000;2023-05-17T03:36:08;5.57;;;1.63;;
54197;SDS011;40105;52.366;17.000;2023-05-17T03:38:33;8.60;;;1.93;;
54197;SDS011;40105;52.366;17.000;2023-05-17T03:40:58;11.60;;;2.03;;
54197;SDS011;40105;52.366;17.000;2023-05-17T03:43:23;6.30;;;1.87;;
54197;SDS011;40105;52.366;17.000;2023-05-17T03:45:48;6.90;;;1.93;;
54197;SDS011;40105;52.366;17.000;2023-05-17T03:48:13;4.97;;;1.80;;
54197;SDS011;40105;52.366;17.000;2023-05-17T03:50:39;8.93;;;2.03;;
54197;SDS011;40105;52.366;17.000;2023-05-17T03:53:08;20.40;;;2.97;;
54197;SDS011;40105;52.366;17.000;2023-05-17T03:55:33;6.03;;;1.88;;
54197;SDS011;40105;52.366;17.000;2023-05-17T03:57:58;11.70;;;2.30;;
54197;SDS011;40105;52.366;17.000;2023-05-17T04:00:23;7.97;;;2.30;;
54197;SDS011;40105;52.366;17.000;2023-05-17T04:02:49;12.47;;;2.27;;
54197;SDS011;40105;52.366;17.000;2023-05-17T04:05:14;7.13;;;1.50;;
54197;SDS011;40105;52.366;17.000;2023-05-17T04:07:40;12.23;;;2.85;;
54197;SDS011;40105;52.366;17.000;2023-05-17T04:10:05;10.13;;;1.30;;
54197;SDS011;40105;52.366;17.000;2023-05-17T04:12:30;10.65;;;1.63;;
54197;SDS011;40105;52.366;17.000;2023-05-17T04:14:55;12.87;;;2.33;;
54197;SDS011;40105;52.366;17.000;2023-05-17T04:17:20;5.37;;;1.50;;
54197;SDS011;40105;52.366;17.000;2023-05-17T04:19:46;8.97;;;1.73;;
54197;SDS011;40105;52.366;17.000;2023-05-17T04:22:11;7.63;;;1.73;;
54197;SDS011;40105;52.366;17.000;2023-05-17T04:24:36;6.63;;;1.43;;
54197;SDS011;40105;52.366;17.000;2023-05-17T04:27:01;11.20;;;1.50;;
54197;SDS011;40105;52.366;17.000;2023-05-17T04:29:28;6.18;;;1.65;;
54197;SDS011;40105;52.366;17.000;2023-05-17T04:31:53;7.03;;;1.67;;
54197;SDS011;40105;52.366;17.000;2023-05-17T04:34:18;14.53;;;2.10;;
54197;SDS011;40105;52.366;17.000;2023-05-17T04:36:46;8.45;;;2.08;;
54197;SDS011;40105;52.366;17.000;2023-05-17T04:39:11;30.85;;;2.75;;
54197;SDS011;40105;52.366;17.000;2023-05-17T04:41:36;13.83;;;1.73;;
54197;SDS011;40105;52.366;17.000;2023-05-17T04:44:01;21.80;;;3.17;;
54197;SDS011;40105;52.366;17.000;2023-05-17T04:46:27;8.38;;;1.80;;
54197;SDS011;40105;52.366;17.000;2023-05-17T04:48:53;11.27;;;2.17;;
54197;SDS011;40105;52.366;17.000;2023-05-17T04:51:20;8.65;;;1.80;;
54197;SDS011;40105;52.366;17.000;2023-05-17T04:53:45;6.53;;;1.73;;
54197;SDS011;40105;52.366;17.000;2023-05-17T04:56:10;8.10;;;1.80;;
54197;SDS011;40105;52.366;17.000;2023-05-17T04:58:35;12.53;;;2.90;;
54197;SDS011;40105;52.366;17.000;2023-05-17T05:01:00;10.10;;;1.63;;
54197;SDS011;40105;52.366;17.000;2023-05-17T05:03:25;4.77;;;1.90;;
54197;SDS011;40105;52.366;17.000;2023-05-17T05:05:51;13.23;;;3.00;;
54197;SDS011;40105;52.366;17.000;2023-05-17T05:08:16;10.33;;;1.70;;
54197;SDS011;40105;52.366;17.000;2023-05-17T05:10:41;11.77;;;2.80;;
54197;SDS011;40105;52.366;17.000;2023-05-17T05:13:06;12.10;;;2.23;;
54197;SDS011;40105;52.366;17.000;2023-05-17T05:15:32;6.90;;;2.07;;
54197;SDS011;40105;52.366;17.000;2023-05-17T05:17:57;9.95;;;2.70;;
54197;SDS011;40105;52.366;17.000;2023-05-17T05:20:22;12.67;;;2.10;;
54197;SDS011;40105;52.366;17.000;2023-05-17T05:22:47;18.88;;;3.20;;
54197;SDS011;40105;52.366;17.000;2023-05-17T05:25:13;8.10;;;2.40;;
54197;SDS011;40105;52.366;17.000;2023-05-17T05:27:38;34.07;;;2.83;;
54197;SDS011;40105;52.366;17.000;2023-05-17T05:30:03;9.02;;;2.78;;
54197;SDS011;40105;52.366;17.000;2023-05-17T05:32:28;10.85;;;2.83;;
54197;SDS011;40105;52.366;17.000;2023-05-17T05:34:53;6.50;;;2.17;;
54197;SDS011;40105;52.366;17.000;2023-05-17T05:37:19;6.53;;;2.30;;
54197;SDS011;40105;52.366;17.000;2023-05-17T05:39:44;14.43;;;2.80;;
54197;SDS011;40105;52.366;17.000;2023-05-17T05:42:10;11.43;;;2.92;;
54197;SDS011;40105;52.366;17.000;2023-05-17T05:44:35;16.30;;;2.97;;
54197;SDS011;40105;52.366;17.000;2023-05-17T05:47:00;11.40;;;2.63;;
54197;SDS011;40105;52.366;17.000;2023-05-17T05:49:25;15.80;;;3.63;;
54197;SDS011;40105;52.366;17.000;2023-05-17T05:51:51;10.63;;;3.50;;
54197;SDS011;40105;52.366;17.000;2023-05-17T05:54:16;19.73;;;4.20;;
54197;SDS011;40105;52.366;17.000;2023-05-17T05:56:41;9.93;;;2.90;;
54197;SDS011;40105;52.366;17.000;2023-05-17T05:59:06;23.77;;;4.07;;
54197;SDS011;40105;52.366;17.000;2023-05-17T06:01:31;19.40;;;3.47;;
54197;SDS011;40105;52.366;17.000;2023-05-17T06:03:57;19.40;;;3.70;;
54197;SDS011;40105;52.366;17.000;2023-05-17T06:06:23;11.50;;;3.90;;
54197;SDS011;40105;52.366;17.000;2023-05-17T06:08:48;13.43;;;3.25;;
54197;SDS011;40105;52.366;17.000;2023-05-17T06:11:13;26.57;;;3.07;;
54197;SDS011;40105;52.366;17.000;2023-05-17T06:13:38;19.33;;;3.63;;
54197;SDS011;40105;52.366;17.000;2023-05-17T06:16:04;23.80;;;5.72;;
54197;SDS011;40105;52.366;17.000;2023-05-17T06:18:29;23.80;;;3.50;;
54197;SDS011;40105;52.366;17.000;2023-05-17T06:20:55;16.83;;;3.33;;
54197;SDS011;40105;52.366;17.000;2023-05-17T06:23:20;23.53;;;4.40;;
54197;SDS011;40105;52.366;17.000;2023-05-17T06:25:45;14.03;;;3.63;;
54197;SDS011;40105;52.366;17.000;2023-05-17T06:28:10;18.20;;;3.17;;
54197;SDS011;40105;52.366;17.000;2023-05-17T06:30:35;13.50;;;3.28;;
54197;SDS011;40105;52.366;17.000;2023-05-17T06:33:00;17.30;;;3.60;;
54197;SDS011;40105;52.366;17.000;2023-05-17T06:35:26;21.93;;;4.07;;
54197;SDS011;40105;52.366;17.000;2023-05-17T06:37:51;12.23;;;3.07;;
54197;SDS011;40105;52.366;17.000;2023-05-17T06:40:16;12.07;;;2.60;;
54197;SDS011;40105;52.366;17.000;2023-05-17T06:42:41;17.70;;;3.00;;
54197;SDS011;40105;52.366;17.000;2023-05-17T06:45:07;18.55;;;3.85;;
54197;SDS011;40105;52.366;17.000;2023-05-17T06:47:32;10.45;;;2.60;;
54197;SDS011;40105;52.366;17.000;2023-05-17T06:49:57;14.80;;;3.63;;
54197;SDS011;40105;52.366;17.000;2023-05-17T06:52:22;8.23;;;2.70;;
54197;SDS011;40105;52.366;17.000;2023-05-17T06:54:47;17.57;;;3.80;;
54197;SDS011;40105;52.366;17.000;2023-05-17T06:57:13;23.70;;;3.50;;
54197;SDS011;40105;52.366;17.000;2023-05-17T06:59:38;12.53;;;3.43;;
54197;SDS011;40105;52.366;17.000;2023-05-17T07:02:03;19.47;;;3.47;;
54197;SDS011;40105;52.366;17.000;2023-05-17T07:04:28;10.27;;;3.22;;
54197;SDS011;40105;52.366;17.000;2023-05-17T07:06:54;17.23;;;3.88;;
54197;SDS011;40105;52.366;17.000;2023-05-17T07:09:19;10.50;;;2.77;;
54197;SDS011;40105;52.366;17.000;2023-05-17T07:11:45;19.38;;;3.72;;
54197;SDS011;40105;52.366;17.000;2023-05-17T07:14:10;17.63;;;3.50;;
54197;SDS011;40105;52.366;17.000;2023-05-17T07:16:35;22.10;;;3.63;;
54197;SDS011;40105;52.366;17.000;2023-05-17T07:19:00;29.07;;;4.17;;
54197;SDS011;40105;52.366;17.000;2023-05-17T07:21:25;13.23;;;3.73;;
54197;SDS011;40105;52.366;17.000;2023-05-17T07:23:50;14.10;;;2.93;;
54197;SDS011;40105;52.366;17.000;2023-05-17T07:26:19;15.00;;;2.77;;
54197;SDS011;40105;52.366;17.000;2023-05-17T07:28:44;22.60;;;3.20;;
54197;SDS011;40105;52.366;17.000;2023-05-17T07:31:09;22.17;;;4.90;;
54197;SDS011;40105;52.366;17.000;2023-05-17T07:33:35;17.30;;;3.63;;
54197;SDS011;40105;52.366;17.000;2023-05-17T07:36:01;17.92;;;3.97;;
54197;SDS011;40105;52.366;17.000;2023-05-17T07:38:26;13.73;;;3.57;;
54197;SDS011;40105;52.366;17.000;2023-05-17T07:40:51;22.63;;;3.80;;
54197;SDS011;40105;52.366;17.000;2023-05-17T07:43:16;15.97;;;3.67;;
54197;SDS011;40105;52.366;17.000;2023-05-17T07:45:42;15.97;;;5.60;;
54197;SDS011;40105;52.366;17.000;2023-05-17T07:48:07;23.65;;;4.03;;
54197;SDS011;40105;52.366;17.000;2023-05-17T07:50:32;20.33;;;5.47;;
54197;SDS011;40105;52.366;17.000;2023-05-17T07:52:57;13.87;;;3.60;;
54197;SDS011;40105;52.366;17.000;2023-05-17T07:55:22;22.17;;;4.17;;
54197;SDS011;40105;52.366;17.000;2023-05-17T07:57:47;13.57;;;2.80;;
54197;SDS011;40105;52.366;17.000;2023-05-17T08:00:13;14.50;;;2.80;;
54197;SDS011;40105;52.366;17.000;2023-05-17T08:02:38;7.18;;;2.88;;
54197;SDS011;40105;52.366;17.000;2023-05-17T08:05:04;7.43;;;2.38;;
54197;SDS011;40105;52.366;17.000;2023-05-17T08:07:29;21.92;;;2.78;;
54197;SDS011;40105;52.366;17.000;2023-05-17T08:09:54;11.93;;;2.97;;
54197;SDS011;40105;52.366;17.000;2023-05-17T08:12:20;16.80;;;2.63;;
54197;SDS011;40105;52.366;17.000;2023-05-17T08:14:45;12.37;;;2.67;;
54197;SDS011;40105;52.366;17.000;2023-05-17T08:17:10;5.87;;;2.20;;
54197;SDS011;40105;52.366;17.000;2023-05-17T08:19:35;10.87;;;2.93;;
54197;SDS011;40105;52.366;17.000;2023-05-17T08:22:01;10.68;;;2.17;;
54197;SDS011;40105;52.366;17.000;2023-05-17T08:24:26;12.80;;;2.63;;
54197;SDS011;40105;52.366;17.000;2023-05-17T08:26:51;10.83;;;2.23;;
54197;SDS011;40105;52.366;17.000;2023-05-17T08:29:16;9.37;;;2.10;;
54197;SDS011;40105;52.366;17.000;2023-05-17T08:31:42;13.27;;;2.17;;
54197;SDS011;40105;52.366;17.000;2023-05-17T08:34:07;6.47;;;1.73;;
54197;SDS011;40105;52.366;17.000;2023-05-17T08:36:32;17.03;;;2.70;;
54197;SDS011;40105;52.366;17.000;2023-05-17T08:38:57;9.10;;;2.30;;
54197;SDS011;40105;52.366;17.000;2023-05-17T08:41:22;12.43;;;2.13;;
54197;SDS011;40105;52.366;17.000;2023-05-17T08:43:48;7.30;;;2.50;;
54197;SDS011;40105;52.366;17.000;2023-05-17T08:46:14;8.52;;;2.50;;
54197;SDS011;40105;52.366;17.000;2023-05-17T08:48:40;5.90;;;2.40;;
54197;SDS011;40105;52.366;17.000;2023-05-17T08:51:07;16.65;;;2.78;;
54197;SDS011;40105;52.366;17.000;2023-05-17T08:53:33;9.20;;;2.25;;
54197;SDS011;40105;52.366;17.000;2023-05-17T08:55:59;14.57;;;2.38;;
54197;SDS011;40105;52.366;17.000;2023-05-17T08:58:30;7.93;;;2.10;;
54197;SDS011;40105;52.366;17.000;2023-05-17T09:00:57;18.60;;;2.63;;
54197;SDS011;40105;52.366;17.000;2023-05-17T09:03:23;31.23;;;3.10;;
54197;SDS011;40105;52.366;17.000;2023-05-17T09:05:49;10.52;;;3.05;;
54197;SDS011;40105;52.366;17.000;2023-05-17T09:08:16;8.40;;;3.05;;
54197;SDS011;40105;52.366;17.000;2023-05-17T09:10:41;13.32;;;2.92;;
54197;SDS011;40105;52.366;17.000;2023-05-17T09:13:07;5.97;;;2.03;;
54197;SDS011;40105;52.366;17.000;2023-05-17T09:15:32;14.48;;;2.25;;
54197;SDS011;40105;52.366;17.000;2023-05-17T09:17:58;16.27;;;2.08;;
54197;SDS011;40105;52.366;17.000;2023-05-17T09:20:24;10.00;;;2.53;;
54197;SDS011;40105;52.366;17.000;2023-05-17T09:22:50;10.57;;;1.92;;
54197;SDS011;40105;52.366;17.000;2023-05-17T09:25:19;11.95;;;2.15;;
54197;SDS011;40105;52.366;17.000;2023-05-17T09:27:44;16.60;;;3.15;;
54197;SDS011;40105;52.366;17.000;2023-05-17T09:30:10;12.67;;;2.37;;
54197;SDS011;40105;52.366;17.000;2023-05-17T09:32:41;6.45;;;2.15;;
54197;SDS011;40105;52.366;17.000;2023-05-17T09:35:06;7.07;;;1.65;;
54197;SDS011;40105;52.366;17.000;2023-05-17T09:37:34;11.27;;;2.00;;
54197;SDS011;40105;52.366;17.000;2023-05-17T09:40:01;15.20;;;2.45;;
54197;SDS011;40105;52.366;17.000;2023-05-17T09:42:26;8.50;;;2.23;;
54197;SDS011;40105;52.366;17.000;2023-05-17T09:44:53;19.07;;;2.80;;
54197;SDS011;40105;52.366;17.000;2023-05-17T09:47:28;12.05;;;2.47;;
54197;SDS011;40105;52.366;17.000;2023-05-17T09:49:56;7.47;;;2.20;;
54197;SDS011;40105;52.366;17.000;2023-05-17T09:52:22;11.35;;;2.28;;
54197;SDS011;40105;52.366;17.000;2023-05-17T09:54:51;7.70;;;2.50;;
54197;SDS011;40105;52.366;17.000;2023-05-17T09:57:17;10.98;;;2.42;;
54197;SDS011;40105;52.366;17.000;2023-05-17T09:59:42;10.30;;;2.10;;
54197;SDS011;40105;52.366;17.000;2023-05-17T10:02:08;7.30;;;2.42;;
54197;SDS011;40105;52.366;17.000;2023-05-17T10:04:40;6.75;;;2.05;;
54197;SDS011;40105;52.366;17.000;2023-05-17T10:07:06;9.93;;;2.05;;
54197;SDS011;40105;52.366;17.000;2023-05-17T10:09:32;9.40;;;2.22;;
54197;SDS011;40105;52.366;17.000;2023-05-17T10:12:00;7.05;;;2.40;;
54197;SDS011;40105;52.366;17.000;2023-05-17T10:14:27;13.10;;;2.28;;
54197;SDS011;40105;52.366;17.000;2023-05-17T10:16:52;9.40;;;2.30;;
54197;SDS011;40105;52.366;17.000;2023-05-17T10:19:19;12.87;;;2.27;;
54197;SDS011;40105;52.366;17.000;2023-05-17T10:21:46;9.75;;;2.40;;
54197;SDS011;40105;52.366;17.000;2023-05-17T10:24:11;8.00;;;2.05;;
54197;SDS011;40105;52.366;17.000;2023-05-17T10:26:37;4.25;;;1.90;;
54197;SDS011;40105;52.366;17.000;2023-05-17T10:29:02;8.90;;;1.88;;
54197;SDS011;40105;52.366;17.000;2023-05-17T10:31:28;7.55;;;2.00;;
54197;SDS011;40105;52.366;17.000;2023-05-17T10:33:53;9.07;;;2.03;;
54197;SDS011;40105;52.366;17.000;2023-05-17T10:36:18;20.40;;;1.80;;
54197;SDS011;40105;52.366;17.000;2023-05-17T10:38:44;15.55;;;2.72;;
54197;SDS011;40105;52.366;17.000;2023-05-17T10:41:10;13.70;;;2.75;;
54197;SDS011;40105;52.366;17.000;2023-05-17T10:43:36;15.48;;;2.53;;
54197;SDS011;40105;52.366;17.000;2023-05-17T10:46:02;15.18;;;2.95;;
54197;SDS011;40105;52.366;17.000;2023-05-17T10:48:28;15.38;;;3.28;;
54197;SDS011;40105;52.366;17.000;2023-05-17T10:50:54;12.32;;;2.55;;
54197;SDS011;40105;52.366;17.000;2023-05-17T10:53:20;14.10;;;2.33;;
54197;SDS011;40105;52.366;17.000;2023-05-17T10:55:45;14.13;;;2.60;;
54197;SDS011;40105;52.366;17.000;2023-05-17T10:58:12;20.42;;;2.78;;
54197;SDS011;40105;52.366;17.000;2023-05-17T11:00:40;8.38;;;2.40;;
54197;SDS011;40105;52.366;17.000;2023-05-17T11:03:24;15.32;;;2.70;;
54197;SDS011;40105;52.366;17.000;2023-05-17T11:08:33;7.70;;;1.90;;
54197;SDS011;40105;52.366;17.000;2023-05-17T11:11:18;13.60;;;2.53;;
54197;SDS011;40105;52.366;17.000;2023-05-17T11:13:44;13.05;;;2.80;;
54197;SDS011;40105;52.366;17.000;2023-05-17T11:16:12;15.32;;;2.58;;
54197;SDS011;40105;52.366;17.000;2023-05-17T11:18:47;11.70;;;2.60;;
54197;SDS011;40105;52.366;17.000;2023-05-17T11:21:13;5.03;;;1.98;;
54197;SDS011;40105;52.366;17.000;2023-05-17T11:23:39;13.30;;;2.13;;
54197;SDS011;40105;52.366;17.000;2023-05-17T11:26:11;21.67;;;2.67;;
54197;SDS011;40105;52.366;17.000;2023-05-17T11:28:39;14.30;;;2.22;;
54197;SDS011;40105;52.366;17.000;2023-05-17T11:31:04;9.00;;;2.17;;
54197;SDS011;40105;52.366;17.000;2023-05-17T11:33:37;9.40;;;2.35;;
54197;SDS011;40105;52.366;17.000;2023-05-17T11:36:04;12.43;;;2.30;;
54197;SDS011;40105;52.366;17.000;2023-05-17T11:38:30;8.07;;;1.95;;
54197;SDS011;40105;52.366;17.000;2023-05-17T11:40:56;6.55;;;2.40;;
54197;SDS011;40105;52.366;17.000;2023-05-17T11:43:25;10.15;;;3.25;;
54197;SDS011;40105;52.366;17.000;2023-05-17T11:45:55;11.75;;;1.90;;
54197;SDS011;40105;52.366;17.000;2023-05-17T11:48:28;11.48;;;2.72;;
54197;SDS011;40105;52.366;17.000;2023-05-17T11:50:54;10.30;;;2.03;;
54197;SDS011;40105;52.366;17.000;2023-05-17T11:53:20;5.97;;;2.33;;
54197;SDS011;40105;52.366;17.000;2023-05-17T11:55:46;4.50;;;1.77;;
54197;SDS011;40105;52.366;17.000;2023-05-17T11:58:13;12.35;;;3.65;;
54197;SDS011;40105;52.366;17.000;2023-05-17T12:00:39;17.05;;;2.40;;
54197;SDS011;40105;52.366;17.000;2023-05-17T12:03:19;13.25;;;1.77;;
54197;SDS011;40105;52.366;17.000;2023-05-17T12:05:45;8.95;;;2.42;;
54197;SDS011;40105;52.366;17.000;2023-05-17T12:08:11;7.15;;;1.98;;
54197;SDS011;40105;52.366;17.000;2023-05-17T12:10:36;5.05;;;1.60;;
54197;SDS011;40105;52.366;17.000;2023-05-17T12:13:07;9.93;;;2.00;;
54197;SDS011;40105;52.366;17.000;2023-05-17T12:15:33;9.23;;;1.95;;
54197;SDS011;40105;52.366;17.000;2023-05-17T12:17:58;16.00;;;2.00;;
54197;SDS011;40105;52.366;17.000;2023-05-17T12:20:23;7.87;;;2.17;;
54197;SDS011;40105;52.366;17.000;2023-05-17T12:22:52;13.43;;;3.23;;
54197;SDS011;40105;52.366;17.000;2023-05-17T12:25:18;6.55;;;2.10;;
54197;SDS011;40105;52.366;17.000;2023-05-17T12:27:43;6.82;;;1.23;;
54197;SDS011;40105;52.366;17.000;2023-05-17T12:30:14;6.27;;;1.57;;
54197;SDS011;40105;52.366;17.000;2023-05-17T12:35:05;6.95;;;1.73;;
54197;SDS011;40105;52.366;17.000;2023-05-17T12:37:30;7.80;;;1.63;;
54197;SDS011;40105;52.366;17.000;2023-05-17T12:39:57;8.93;;;1.90;;
54197;SDS011;40105;52.366;17.000;2023-05-17T12:42:23;7.43;;;1.80;;
54197;SDS011;40105;52.366;17.000;2023-05-17T12:44:48;12.47;;;2.30;;
54197;SDS011;40105;52.366;17.000;2023-05-17T12:47:13;7.60;;;1.50;;
54197;SDS011;40105;52.366;17.000;2023-05-17T12:49:39;4.63;;;1.53;;
54197;SDS011;40105;52.366;17.000;2023-05-17T12:52:16;4.25;;;1.98;;
54197;SDS011;40105;52.366;17.000;2023-05-17T12:54:41;5.93;;;2.05;;
54197;SDS011;40105;52.366;17.000;2023-05-17T12:57:11;9.02;;;1.50;;
54197;SDS011;40105;52.366;17.000;2023-05-17T12:59:44;18.03;;;3.20;;
54197;SDS011;40105;52.366;17.000;2023-05-17T13:02:10;8.40;;;2.67;;
54197;SDS011;40105;52.366;17.000;2023-05-17T13:04:35;8.77;;;1.90;;
54197;SDS011;40105;52.366;17.000;2023-05-17T13:07:02;14.65;;;2.55;;
54197;SDS011;40105;52.366;17.000;2023-05-17T13:09:28;23.65;;;1.90;;
54197;SDS011;40105;52.366;17.000;2023-05-17T13:12:03;6.70;;;1.67;;
54197;SDS011;40105;52.366;17.000;2023-05-17T13:14:32;8.45;;;1.90;;
54197;SDS011;40105;52.366;17.000;2023-05-17T13:16:58;11.65;;;2.78;;
54197;SDS011;40105;52.366;17.000;2023-05-17T13:19:23;6.80;;;1.40;;
54197;SDS011;40105;52.366;17.000;2023-05-17T13:21:48;16.97;;;1.87;;
54197;SDS011;40105;52.366;17.000;2023-05-17T13:24:13;6.93;;;2.23;;
54197;SDS011;40105;52.366;17.000;2023-05-17T13:26:38;6.73;;;2.30;;
54197;SDS011;40105;52.366;17.000;2023-05-17T13:29:03;13.43;;;2.33;;
54197;SDS011;40105;52.366;17.000;2023-05-17T13:31:29;10.10;;;2.00;;
54197;SDS011;40105;52.366;17.000;2023-05-17T13:33:54;8.63;;;1.97;;
54197;SDS011;40105;52.366;17.000;2023-05-17T13:36:19;23.30;;;2.43;;
54197;SDS011;40105;52.366;17.000;2023-05-17T13:38:44;8.40;;;1.70;;
54197;SDS011;40105;52.366;17.000;2023-05-17T13:41:09;9.37;;;1.97;;
54197;SDS011;40105;52.366;17.000;2023-05-17T13:43:35;11.43;;;2.73;;
54197;SDS011;40105;52.366;17.000;2023-05-17T13:46:00;9.73;;;2.03;;
54197;SDS011;40105;52.366;17.000;2023-05-17T13:48:26;11.27;;;2.15;;
54197;SDS011;40105;52.366;17.000;2023-05-17T13:50:51;17.63;;;2.60;;
54197;SDS011;40105;52.366;17.000;2023-05-17T13:53:16;9.70;;;1.73;;
54197;SDS011;40105;52.366;17.000;2023-05-17T13:55:42;18.52;;;2.08;;
54197;SDS011;40105;52.366;17.000;2023-05-17T13:58:07;8.83;;;2.30;;
54197;SDS011;40105;52.366;17.000;2023-05-17T14:00:32;7.33;;;2.13;;
54197;SDS011;40105;52.366;17.000;2023-05-17T14:02:57;11.63;;;1.70;;
54197;SDS011;40105;52.366;17.000;2023-05-17T14:05:22;6.30;;;1.93;;
54197;SDS011;40105;52.366;17.000;2023-05-17T14:07:48;17.65;;;2.10;;
54197;SDS011;40105;52.366;17.000;2023-05-17T14:10:15;14.20;;;2.20;;
54197;SDS011;40105;52.366;17.000;2023-05-17T14:12:40;14.00;;;2.43;;
54197;SDS011;40105;52.366;17.000;2023-05-17T14:15:06;12.23;;;2.13;;
54197;SDS011;40105;52.366;17.000;2023-05-17T14:17:32;14.63;;;1.52;;
54197;SDS011;40105;52.366;17.000;2023-05-17T14:19:57;29.27;;;2.77;;
54197;SDS011;40105;52.366;17.000;2023-05-17T14:22:22;13.77;;;1.92;;
54197;SDS011;40105;52.366;17.000;2023-05-17T14:24:48;17.83;;;2.67;;
54197;SDS011;40105;52.366;17.000;2023-05-17T14:27:13;22.20;;;3.13;;
54197;SDS011;40105;52.366;17.000;2023-05-17T14:29:38;12.37;;;2.70;;
54197;SDS011;40105;52.366;17.000;2023-05-17T14:32:03;9.15;;;2.22;;